sensor_id;sensor_type;location;lat;lon;timestamp;P1;durP1;ratioP1;P2;durP2;ratioP2
69937;SDS011;57248;47.320;15.998;2024-03-17T00:02:29;1.40;;;0.30;;
69937;SDS011;57248;47.320;15.998;2024-03-17T00:05:02;2.03;;;0.20;;
69937;SDS011;57248;47.320;15.998;2024-03-17T00:07:35;0.50;;;0.10;;
69937;SDS011;57248;47.320;15.998;2024-03-17T00:10:07;0.88;;;0.20;;
69937;SDS011;57248;47.320;15.998;2024-03-17T00:12:33;1.47;;;0.20;;
69937;SDS011;57248;47.320;15.998;2024-03-17T00:15:05;0.10;;;0.00;;
69937;SDS011;57248;47.320;15.998;2024-03-17T00:17:38;1.80;;;0.00;;
69937;SDS011;57248;47.320;15.998;2024-03-17T00:20:10;0.85;;;0.00;;
69937;SDS011;57248;47.320;15.998;2024-03-17T00:22:50;0.63;;;0.00;;
69937;SDS011;57248;47.320;15.998;2024-03-17T00:25:25;0.10;;;0.00;;
69937;SDS011;57248;47.320;15.998;2024-03-17T00:27:58;0.82;;;0.00;;
69937;SDS011;57248;47.320;15.998;2024-03-17T00:30:30;0.10;;;0.00;;
69937;SDS011;57248;47.320;15.998;2024-03-17T00:33:02;0.00;;;0.00;;
69937;SDS011;57248;47.320;15.998;2024-03-17T00:35:35;0.13;;;0.00;;
69937;SDS011;57248;47.320;15.998;2024-03-17T00:38:01;0.90;;;0.00;;
69937;SDS011;57248;47.320;15.998;2024-03-17T00:40:41;0.32;;;0.00;;
69937;SDS011;57248;47.320;15.998;2024-03-17T00:43:13;0.28;;;0.00;;
69937;SDS011;57248;47.320;15.998;2024-03-17T00:45:52;0.32;;;0.00;;
69937;SDS011;57248;47.320;15.998;2024-03-17T00:48:24;0.00;;;0.00;;
69937;SDS011;57248;47.320;15.998;2024-03-17T00:50:56;0.17;;;0.08;;
69937;SDS011;57248;47.320;15.998;2024-03-17T00:53:29;0.10;;;0.00;;
69937;SDS011;57248;47.320;15.998;2024-03-17T00:56:01;0.10;;;0.00;;
69937;SDS011;57248;47.320;15.998;2024-03-17T00:58:34;0.47;;;0.00;;
69937;SDS011;57248;47.320;15.998;2024-03-17T01:01:06;0.10;;;0.00;;
69937;SDS011;57248;47.320;15.998;2024-03-17T01:03:39;0.10;;;0.00;;
69937;SDS011;57248;47.320;15.998;2024-03-17T01:06:05;0.10;;;0.00;;
69937;SDS011;57248;47.320;15.998;2024-03-17T01:08:38;0.00;;;0.00;;
69937;SDS011;57248;47.320;15.998;2024-03-17T01:11:14;0.22;;;0.00;;
69937;SDS011;57248;47.320;15.998;2024-03-17T01:13:50;0.00;;;0.00;;
69937;SDS011;57248;47.320;15.998;2024-03-17T01:16:29;0.10;;;0.00;;
69937;SDS011;57248;47.320;15.998;2024-03-17T01:19:01;0.40;;;0.00;;
69937;SDS011;57248;47.320;15.998;2024-03-17T01:21:33;0.00;;;0.00;;
69937;SDS011;57248;47.320;15.998;2024-03-17T01:23:59;0.43;;;0.00;;
69937;SDS011;57248;47.320;15.998;2024-03-17T01:26:31;0.10;;;0.00;;
69937;SDS011;57248;47.320;15.998;2024-03-17T01:28:57;1.52;;;0.00;;
69937;SDS011;57248;47.320;15.998;2024-03-17T01:31:29;0.10;;;0.00;;
69937;SDS011;57248;47.320;15.998;2024-03-17T01:34:01;0.00;;;0.00;;
69937;SDS011;57248;47.320;15.998;2024-03-17T01:36:33;0.20;;;0.00;;
69937;SDS011;57248;47.320;15.998;2024-03-17T01:39:05;0.57;;;0.00;;
69937;SDS011;57248;47.320;15.998;2024-03-17T01:41:39;0.10;;;0.00;;
69937;SDS011;57248;47.320;15.998;2024-03-17T01:44:05;0.10;;;0.00;;
69937;SDS011;57248;47.320;15.998;2024-03-17T01:46:38;0.10;;;0.00;;
69937;SDS011;57248;47.320;15.998;2024-03-17T01:49:10;0.00;;;0.00;;
69937;SDS011;57248;47.320;15.998;2024-03-17T01:51:43;0.00;;;0.00;;
69937;SDS011;57248;47.320;15.998;2024-03-17T01:54:16;0.00;;;0.00;;
69937;SDS011;57248;47.320;15.998;2024-03-17T01:56:48;0.00;;;0.00;;
69937;SDS011;57248;47.320;15.998;2024-03-17T01:59:20;0.13;;;0.00;;
69937;SDS011;57248;47.320;15.998;2024-03-17T02:01:52;0.10;;;0.00;;
69937;SDS011;57248;47.320;15.998;2024-03-17T02:04:25;0.00;;;0.00;;
69937;SDS011;57248;47.320;15.998;2024-03-17T02:06:57;0.10;;;0.00;;
69937;SDS011;57248;47.320;15.998;2024-03-17T02:09:37;0.03;;;0.00;;
69937;SDS011;57248;47.320;15.998;2024-03-17T02:12:09;0.07;;;0.00;;
69937;SDS011;57248;47.320;15.998;2024-03-17T02:14:43;0.43;;;0.00;;
69937;SDS011;57248;47.320;15.998;2024-03-17T02:17:15;0.22;;;0.00;;
69937;SDS011;57248;47.320;15.998;2024-03-17T02:19:47;0.00;;;0.00;;
69937;SDS011;57248;47.320;15.998;2024-03-17T02:22:19;0.00;;;0.00;;
69937;SDS011;57248;47.320;15.998;2024-03-17T02:24:51;0.00;;;0.00;;
69937;SDS011;57248;47.320;15.998;2024-03-17T02:27:17;0.10;;;0.00;;
69937;SDS011;57248;47.320;15.998;2024-03-17T02:29:49;0.07;;;0.00;;
69937;SDS011;57248;47.320;15.998;2024-03-17T02:32:21;0.10;;;0.00;;
69937;SDS011;57248;47.320;15.998;2024-03-17T02:34:58;0.00;;;0.00;;
69937;SDS011;57248;47.320;15.998;2024-03-17T02:37:31;0.03;;;0.00;;
69937;SDS011;57248;47.320;15.998;2024-03-17T02:40:04;0.20;;;0.00;;
69937;SDS011;57248;47.320;15.998;2024-03-17T02:42:39;0.10;;;0.00;;
69937;SDS011;57248;47.320;15.998;2024-03-17T02:45:13;0.00;;;0.00;;
69937;SDS011;57248;47.320;15.998;2024-03-17T02:47:45;0.10;;;0.00;;
69937;SDS011;57248;47.320;15.998;2024-03-17T02:50:17;0.00;;;0.00;;
69937;SDS011;57248;47.320;15.998;2024-03-17T02:52:49;0.20;;;0.00;;
69937;SDS011;57248;47.320;15.998;2024-03-17T02:55:21;0.00;;;0.00;;
69937;SDS011;57248;47.320;15.998;2024-03-17T02:57:53;0.10;;;0.00;;
69937;SDS011;57248;47.320;15.998;2024-03-17T03:00:19;0.47;;;0.00;;
69937;SDS011;57248;47.320;15.998;2024-03-17T03:02:51;0.75;;;0.10;;
69937;SDS011;57248;47.320;15.998;2024-03-17T03:05:23;0.30;;;0.00;;
69937;SDS011;57248;47.320;15.998;2024-03-17T03:07:55;0.30;;;0.00;;
69937;SDS011;57248;47.320;15.998;2024-03-17T03:10:27;0.08;;;0.00;;
69937;SDS011;57248;47.320;15.998;2024-03-17T03:12:53;0.20;;;0.00;;
69937;SDS011;57248;47.320;15.998;2024-03-17T03:15:25;0.73;;;0.00;;
69937;SDS011;57248;47.320;15.998;2024-03-17T03:17:57;0.20;;;0.10;;
69937;SDS011;57248;47.320;15.998;2024-03-17T03:20:29;0.40;;;0.00;;
69937;SDS011;57248;47.320;15.998;2024-03-17T03:23:01;0.10;;;0.00;;
69937;SDS011;57248;47.320;15.998;2024-03-17T03:25:33;0.10;;;0.00;;
69937;SDS011;57248;47.320;15.998;2024-03-17T03:28:00;0.40;;;0.00;;
69937;SDS011;57248;47.320;15.998;2024-03-17T03:30:38;0.00;;;0.00;;
69937;SDS011;57248;47.320;15.998;2024-03-17T03:33:10;0.30;;;0.00;;
69937;SDS011;57248;47.320;15.998;2024-03-17T03:35:42;0.53;;;0.00;;
69937;SDS011;57248;47.320;15.998;2024-03-17T03:38:14;0.73;;;0.03;;
69937;SDS011;57248;47.320;15.998;2024-03-17T03:40:47;0.28;;;0.00;;
69937;SDS011;57248;47.320;15.998;2024-03-17T03:43:22;0.15;;;0.00;;
69937;SDS011;57248;47.320;15.998;2024-03-17T03:45:54;0.10;;;0.00;;
69937;SDS011;57248;47.320;15.998;2024-03-17T03:48:26;0.20;;;0.07;;
69937;SDS011;57248;47.320;15.998;2024-03-17T03:50:58;0.00;;;0.00;;
69937;SDS011;57248;47.320;15.998;2024-03-17T03:53:25;0.25;;;0.00;;
69937;SDS011;57248;47.320;15.998;2024-03-17T03:55:57;0.10;;;0.00;;
69937;SDS011;57248;47.320;15.998;2024-03-17T03:58:30;0.47;;;0.00;;
69937;SDS011;57248;47.320;15.998;2024-03-17T04:01:06;0.35;;;0.00;;
69937;SDS011;57248;47.320;15.998;2024-03-17T04:03:38;0.20;;;0.00;;
69937;SDS011;57248;47.320;15.998;2024-03-17T04:06:10;0.13;;;0.00;;
69937;SDS011;57248;47.320;15.998;2024-03-17T04:08:50;0.20;;;0.00;;
69937;SDS011;57248;47.320;15.998;2024-03-17T04:11:29;0.10;;;0.00;;
69937;SDS011;57248;47.320;15.998;2024-03-17T04:14:01;0.10;;;0.00;;
69937;SDS011;57248;47.320;15.998;2024-03-17T04:16:40;0.10;;;0.00;;
69937;SDS011;57248;47.320;15.998;2024-03-17T04:19:12;0.20;;;0.00;;
69937;SDS011;57248;47.320;15.998;2024-03-17T04:21:47;0.20;;;0.00;;
69937;SDS011;57248;47.320;15.998;2024-03-17T04:24:20;1.85;;;0.60;;
69937;SDS011;57248;47.320;15.998;2024-03-17T04:26:52;2.35;;;0.45;;
69937;SDS011;57248;47.320;15.998;2024-03-17T04:29:24;2.70;;;0.15;;
69937;SDS011;57248;47.320;15.998;2024-03-17T04:31:56;0.50;;;0.10;;
69937;SDS011;57248;47.320;15.998;2024-03-17T04:34:28;0.00;;;0.00;;
69937;SDS011;57248;47.320;15.998;2024-03-17T04:37:00;0.43;;;0.10;;
69937;SDS011;57248;47.320;15.998;2024-03-17T04:39:32;0.85;;;0.05;;
69937;SDS011;57248;47.320;15.998;2024-03-17T04:42:05;0.25;;;0.00;;
69937;SDS011;57248;47.320;15.998;2024-03-17T04:44:38;0.10;;;0.00;;
69937;SDS011;57248;47.320;15.998;2024-03-17T04:47:11;0.03;;;0.00;;
69937;SDS011;57248;47.320;15.998;2024-03-17T04:49:38;0.17;;;0.00;;
69937;SDS011;57248;47.320;15.998;2024-03-17T04:52:16;0.10;;;0.00;;
69937;SDS011;57248;47.320;15.998;2024-03-17T04:54:48;1.00;;;0.10;;
69937;SDS011;57248;47.320;15.998;2024-03-17T04:57:21;1.05;;;0.10;;
69937;SDS011;57248;47.320;15.998;2024-03-17T04:59:53;0.27;;;0.00;;
69937;SDS011;57248;47.320;15.998;2024-03-17T05:02:25;0.30;;;0.00;;
69937;SDS011;57248;47.320;15.998;2024-03-17T05:04:52;0.73;;;0.00;;
69937;SDS011;57248;47.320;15.998;2024-03-17T05:07:24;1.00;;;0.10;;
69937;SDS011;57248;47.320;15.998;2024-03-17T05:09:58;0.10;;;0.00;;
69937;SDS011;57248;47.320;15.998;2024-03-17T05:12:37;0.63;;;0.00;;
69937;SDS011;57248;47.320;15.998;2024-03-17T05:15:09;0.80;;;0.10;;
69937;SDS011;57248;47.320;15.998;2024-03-17T05:17:41;1.58;;;0.45;;
69937;SDS011;57248;47.320;15.998;2024-03-17T05:20:13;1.42;;;0.10;;
69937;SDS011;57248;47.320;15.998;2024-03-17T05:22:45;1.13;;;0.20;;
69937;SDS011;57248;47.320;15.998;2024-03-17T05:25:19;1.57;;;0.40;;
69937;SDS011;57248;47.320;15.998;2024-03-17T05:27:51;3.08;;;0.20;;
69937;SDS011;57248;47.320;15.998;2024-03-17T05:30:17;1.00;;;0.10;;
69937;SDS011;57248;47.320;15.998;2024-03-17T05:32:49;1.07;;;0.20;;
69937;SDS011;57248;47.320;15.998;2024-03-17T05:35:21;1.55;;;0.40;;
69937;SDS011;57248;47.320;15.998;2024-03-17T05:37:53;1.17;;;0.28;;
69937;SDS011;57248;47.320;15.998;2024-03-17T05:40:25;1.23;;;0.20;;
69937;SDS011;57248;47.320;15.998;2024-03-17T05:42:57;0.80;;;0.10;;
69937;SDS011;57248;47.320;15.998;2024-03-17T05:45:23;1.20;;;0.17;;
69937;SDS011;57248;47.320;15.998;2024-03-17T05:47:55;1.73;;;0.20;;
69937;SDS011;57248;47.320;15.998;2024-03-17T05:50:34;1.00;;;0.10;;
69937;SDS011;57248;47.320;15.998;2024-03-17T05:53:06;1.37;;;0.20;;
69937;SDS011;57248;47.320;15.998;2024-03-17T05:55:38;0.80;;;0.10;;
69937;SDS011;57248;47.320;15.998;2024-03-17T05:58:12;0.50;;;0.00;;
69937;SDS011;57248;47.320;15.998;2024-03-17T06:00:44;4.22;;;0.13;;
69937;SDS011;57248;47.320;15.998;2024-03-17T06:03:16;1.10;;;0.10;;
69937;SDS011;57248;47.320;15.998;2024-03-17T06:05:58;0.77;;;0.10;;
69937;SDS011;57248;47.320;15.998;2024-03-17T06:08:48;1.92;;;0.22;;
69937;SDS011;57248;47.320;15.998;2024-03-17T06:11:22;1.30;;;0.17;;
69937;SDS011;57248;47.320;15.998;2024-03-17T06:14:08;1.05;;;0.10;;
69937;SDS011;57248;47.320;15.998;2024-03-17T06:16:43;1.90;;;0.50;;
69937;SDS011;57248;47.320;15.998;2024-03-17T06:19:09;1.37;;;0.20;;
69937;SDS011;57248;47.320;15.998;2024-03-17T06:21:42;1.48;;;0.22;;
69937;SDS011;57248;47.320;15.998;2024-03-17T06:24:14;1.23;;;0.43;;
69937;SDS011;57248;47.320;15.998;2024-03-17T06:26:46;0.90;;;0.20;;
69937;SDS011;57248;47.320;15.998;2024-03-17T06:29:14;0.65;;;0.10;;
69937;SDS011;57248;47.320;15.998;2024-03-17T06:31:48;0.95;;;0.13;;
69937;SDS011;57248;47.320;15.998;2024-03-17T06:34:23;1.50;;;0.10;;
69937;SDS011;57248;47.320;15.998;2024-03-17T06:36:55;0.60;;;0.10;;
69937;SDS011;57248;47.320;15.998;2024-03-17T06:39:34;1.43;;;0.10;;
69937;SDS011;57248;47.320;15.998;2024-03-17T06:42:07;0.50;;;0.10;;
69937;SDS011;57248;47.320;15.998;2024-03-17T06:44:41;1.60;;;0.10;;
69937;SDS011;57248;47.320;15.998;2024-03-17T06:47:07;0.53;;;0.00;;
69937;SDS011;57248;47.320;15.998;2024-03-17T06:49:39;0.77;;;0.10;;
69937;SDS011;57248;47.320;15.998;2024-03-17T06:52:05;1.20;;;0.13;;
69937;SDS011;57248;47.320;15.998;2024-03-17T06:54:37;0.93;;;0.17;;
69937;SDS011;57248;47.320;15.998;2024-03-17T06:57:11;1.92;;;0.38;;
69937;SDS011;57248;47.320;15.998;2024-03-17T06:59:42;0.68;;;0.00;;
69937;SDS011;57248;47.320;15.998;2024-03-17T07:02:14;3.45;;;0.40;;
69937;SDS011;57248;47.320;15.998;2024-03-17T07:04:48;1.40;;;0.20;;
69937;SDS011;57248;47.320;15.998;2024-03-17T07:07:20;1.43;;;0.30;;
69937;SDS011;57248;47.320;15.998;2024-03-17T07:09:48;1.20;;;0.20;;
69937;SDS011;57248;47.320;15.998;2024-03-17T07:12:19;2.33;;;0.17;;
69937;SDS011;57248;47.320;15.998;2024-03-17T07:14:52;1.47;;;0.37;;
69937;SDS011;57248;47.320;15.998;2024-03-17T07:17:24;2.03;;;0.40;;
69937;SDS011;57248;47.320;15.998;2024-03-17T07:19:50;1.50;;;0.20;;
69937;SDS011;57248;47.320;15.998;2024-03-17T07:22:22;1.10;;;0.27;;
69937;SDS011;57248;47.320;15.998;2024-03-17T07:24:58;1.88;;;0.17;;
69937;SDS011;57248;47.320;15.998;2024-03-17T07:27:32;2.15;;;0.38;;
69937;SDS011;57248;47.320;15.998;2024-03-17T07:30:06;2.65;;;0.40;;
69937;SDS011;57248;47.320;15.998;2024-03-17T07:32:40;1.13;;;0.17;;
69937;SDS011;57248;47.320;15.998;2024-03-17T07:35:12;1.33;;;0.17;;
69937;SDS011;57248;47.320;15.998;2024-03-17T07:37:45;2.33;;;0.40;;
69937;SDS011;57248;47.320;15.998;2024-03-17T07:40:18;0.95;;;0.20;;
69937;SDS011;57248;47.320;15.998;2024-03-17T07:42:50;1.23;;;0.20;;
69937;SDS011;57248;47.320;15.998;2024-03-17T07:45:22;1.25;;;0.20;;
69937;SDS011;57248;47.320;15.998;2024-03-17T07:47:50;3.63;;;0.60;;
69937;SDS011;57248;47.320;15.998;2024-03-17T07:50:22;2.42;;;0.43;;
69937;SDS011;57248;47.320;15.998;2024-03-17T07:52:54;0.63;;;0.20;;
69937;SDS011;57248;47.320;15.998;2024-03-17T07:55:28;3.13;;;0.38;;
69937;SDS011;57248;47.320;15.998;2024-03-17T07:58:02;1.15;;;0.32;;
69937;SDS011;57248;47.320;15.998;2024-03-17T08:00:28;1.43;;;0.30;;
69937;SDS011;57248;47.320;15.998;2024-03-17T08:03:00;1.73;;;0.50;;
69937;SDS011;57248;47.320;15.998;2024-03-17T08:05:33;1.77;;;0.47;;
69937;SDS011;57248;47.320;15.998;2024-03-17T08:08:05;2.75;;;0.50;;
69937;SDS011;57248;47.320;15.998;2024-03-17T08:10:49;1.83;;;0.70;;
69937;SDS011;57248;47.320;15.998;2024-03-17T08:13:23;2.42;;;1.33;;
69937;SDS011;57248;47.320;15.998;2024-03-17T08:16:06;3.07;;;1.27;;
69937;SDS011;57248;47.320;15.998;2024-03-17T08:18:44;2.97;;;1.33;;
69937;SDS011;57248;47.320;15.998;2024-03-17T08:21:18;2.60;;;1.00;;
69937;SDS011;57248;47.320;15.998;2024-03-17T08:23:50;2.40;;;0.80;;
69937;SDS011;57248;47.320;15.998;2024-03-17T08:26:21;2.30;;;0.70;;
69937;SDS011;57248;47.320;15.998;2024-03-17T08:28:54;1.93;;;0.83;;
69937;SDS011;57248;47.320;15.998;2024-03-17T08:31:28;2.38;;;0.70;;
69937;SDS011;57248;47.320;15.998;2024-03-17T08:34:00;2.38;;;0.80;;
69937;SDS011;57248;47.320;15.998;2024-03-17T08:36:33;2.42;;;0.80;;
69937;SDS011;57248;47.320;15.998;2024-03-17T08:39:05;2.35;;;1.00;;
69937;SDS011;57248;47.320;15.998;2024-03-17T08:41:31;5.43;;;1.53;;
69937;SDS011;57248;47.320;15.998;2024-03-17T08:44:03;2.72;;;1.42;;
69937;SDS011;57248;47.320;15.998;2024-03-17T08:46:39;2.03;;;1.10;;
69937;SDS011;57248;47.320;15.998;2024-03-17T08:49:10;2.03;;;0.77;;
69937;SDS011;57248;47.320;15.998;2024-03-17T08:51:36;2.63;;;0.75;;
69937;SDS011;57248;47.320;15.998;2024-03-17T08:54:10;3.20;;;2.20;;
69937;SDS011;57248;47.320;15.998;2024-03-17T08:56:41;3.38;;;2.63;;
69937;SDS011;57248;47.320;15.998;2024-03-17T08:59:13;3.42;;;2.45;;
69937;SDS011;57248;47.320;15.998;2024-03-17T09:01:45;4.05;;;2.60;;
69937;SDS011;57248;47.320;15.998;2024-03-17T09:04:19;3.40;;;2.97;;
69937;SDS011;57248;47.320;15.998;2024-03-17T09:06:50;4.50;;;4.10;;
69937;SDS011;57248;47.320;15.998;2024-03-17T09:09:25;4.40;;;4.00;;
69937;SDS011;57248;47.320;15.998;2024-03-17T09:11:58;3.67;;;2.30;;
69937;SDS011;57248;47.320;15.998;2024-03-17T09:14:29;3.40;;;2.90;;
69937;SDS011;57248;47.320;15.998;2024-03-17T09:17:04;3.55;;;1.40;;
69937;SDS011;57248;47.320;15.998;2024-03-17T09:19:36;2.17;;;1.20;;
69937;SDS011;57248;47.320;15.998;2024-03-17T09:22:08;3.63;;;2.90;;
69937;SDS011;57248;47.320;15.998;2024-03-17T09:24:40;2.55;;;1.85;;
69937;SDS011;57248;47.320;15.998;2024-03-17T09:27:14;2.85;;;1.70;;
69937;SDS011;57248;47.320;15.998;2024-03-17T09:29:54;2.90;;;1.95;;
69937;SDS011;57248;47.320;15.998;2024-03-17T09:32:25;2.23;;;1.17;;
69937;SDS011;57248;47.320;15.998;2024-03-17T09:34:58;2.25;;;0.90;;
69937;SDS011;57248;47.320;15.998;2024-03-17T09:37:31;2.67;;;1.80;;
69937;SDS011;57248;47.320;15.998;2024-03-17T09:40:05;2.58;;;1.95;;
69937;SDS011;57248;47.320;15.998;2024-03-17T09:42:38;3.45;;;3.00;;
69937;SDS011;57248;47.320;15.998;2024-03-17T09:45:15;4.20;;;3.80;;
69937;SDS011;57248;47.320;15.998;2024-03-17T09:47:49;3.00;;;2.40;;
69937;SDS011;57248;47.320;15.998;2024-03-17T09:50:23;4.18;;;3.78;;
69937;SDS011;57248;47.320;15.998;2024-03-17T09:52:56;3.58;;;2.10;;
69937;SDS011;57248;47.320;15.998;2024-03-17T09:55:29;3.83;;;3.08;;
69937;SDS011;57248;47.320;15.998;2024-03-17T09:58:01;3.30;;;3.00;;
69937;SDS011;57248;47.320;15.998;2024-03-17T10:00:35;3.50;;;3.20;;
69937;SDS011;57248;47.320;15.998;2024-03-17T10:03:09;4.03;;;2.85;;
69937;SDS011;57248;47.320;15.998;2024-03-17T10:05:41;3.13;;;2.20;;
69937;SDS011;57248;47.320;15.998;2024-03-17T10:08:21;3.97;;;1.88;;
69937;SDS011;57248;47.320;15.998;2024-03-17T10:10:54;3.23;;;2.20;;
69937;SDS011;57248;47.320;15.998;2024-03-17T10:13:25;4.50;;;2.55;;
69937;SDS011;57248;47.320;15.998;2024-03-17T10:16:00;4.45;;;2.63;;
69937;SDS011;57248;47.320;15.998;2024-03-17T10:18:32;3.08;;;2.65;;
69937;SDS011;57248;47.320;15.998;2024-03-17T10:21:05;3.67;;;2.60;;
69937;SDS011;57248;47.320;15.998;2024-03-17T10:24:19;2.13;;;1.60;;
69937;SDS011;57248;47.320;15.998;2024-03-17T10:26:56;3.80;;;2.05;;
69937;SDS011;57248;47.320;15.998;2024-03-17T10:29:30;2.50;;;1.90;;
69937;SDS011;57248;47.320;15.998;2024-03-17T10:32:03;3.30;;;1.83;;
69937;SDS011;57248;47.320;15.998;2024-03-17T10:34:45;2.28;;;1.60;;
69937;SDS011;57248;47.320;15.998;2024-03-17T10:37:13;2.77;;;1.30;;
69937;SDS011;57248;47.320;15.998;2024-03-17T10:39:46;2.53;;;1.02;;
69937;SDS011;57248;47.320;15.998;2024-03-17T10:42:27;1.70;;;0.82;;
69937;SDS011;57248;47.320;15.998;2024-03-17T10:45:04;3.42;;;1.02;;
69937;SDS011;57248;47.320;15.998;2024-03-17T10:47:49;4.80;;;1.00;;
69937;SDS011;57248;47.320;15.998;2024-03-17T10:50:23;2.33;;;0.90;;
69937;SDS011;57248;47.320;15.998;2024-03-17T10:53:03;3.00;;;1.30;;
69937;SDS011;57248;47.320;15.998;2024-03-17T11:01:10;2.93;;;1.00;;
69937;SDS011;57248;47.320;15.998;2024-03-17T11:03:45;4.80;;;1.40;;
69937;SDS011;57248;47.320;15.998;2024-03-17T11:06:20;2.33;;;0.90;;
69937;SDS011;57248;47.320;15.998;2024-03-17T11:08:53;2.03;;;1.10;;
69937;SDS011;57248;47.320;15.998;2024-03-17T11:11:35;3.53;;;1.70;;
69937;SDS011;57248;47.320;15.998;2024-03-17T11:14:17;3.10;;;1.67;;
69937;SDS011;57248;47.320;15.998;2024-03-17T11:16:51;2.38;;;1.50;;
69937;SDS011;57248;47.320;15.998;2024-03-17T11:19:16;2.58;;;1.35;;
69937;SDS011;57248;47.320;15.998;2024-03-17T11:21:50;2.67;;;1.50;;
69937;SDS011;57248;47.320;15.998;2024-03-17T11:24:22;2.70;;;1.40;;
69937;SDS011;57248;47.320;15.998;2024-03-17T11:26:56;3.60;;;2.03;;
69937;SDS011;57248;47.320;15.998;2024-03-17T11:29:30;3.15;;;2.13;;
69937;SDS011;57248;47.320;15.998;2024-03-17T11:32:24;3.55;;;2.00;;
69937;SDS011;57248;47.320;15.998;2024-03-17T11:35:12;1.90;;;1.10;;
69937;SDS011;57248;47.320;15.998;2024-03-17T11:37:45;3.70;;;1.00;;
69937;SDS011;57248;47.320;15.998;2024-03-17T11:40:24;2.35;;;1.00;;
69937;SDS011;57248;47.320;15.998;2024-03-17T11:43:00;2.92;;;1.00;;
69937;SDS011;57248;47.320;15.998;2024-03-17T11:45:38;2.10;;;0.70;;
69937;SDS011;57248;47.320;15.998;2024-03-17T11:48:12;2.37;;;1.00;;
69937;SDS011;57248;47.320;15.998;2024-03-17T11:50:52;2.70;;;1.52;;
69937;SDS011;57248;47.320;15.998;2024-03-17T11:53:26;2.63;;;1.35;;
69937;SDS011;57248;47.320;15.998;2024-03-17T11:56:00;2.55;;;0.73;;
69937;SDS011;57248;47.320;15.998;2024-03-17T11:58:36;1.77;;;0.60;;
69937;SDS011;57248;47.320;15.998;2024-03-17T12:01:12;1.57;;;0.97;;
69937;SDS011;57248;47.320;15.998;2024-03-17T12:03:44;2.60;;;0.80;;
69937;SDS011;57248;47.320;15.998;2024-03-17T12:06:16;1.48;;;0.50;;
69937;SDS011;57248;47.320;15.998;2024-03-17T12:08:48;2.35;;;0.60;;
69937;SDS011;57248;47.320;15.998;2024-03-17T12:11:21;1.88;;;0.60;;
69937;SDS011;57248;47.320;15.998;2024-03-17T12:13:54;1.97;;;0.50;;
69937;SDS011;57248;47.320;15.998;2024-03-17T12:16:33;1.60;;;0.35;;
69937;SDS011;57248;47.320;15.998;2024-03-17T12:19:07;2.08;;;0.50;;
69937;SDS011;57248;47.320;15.998;2024-03-17T12:21:40;2.88;;;0.50;;
69937;SDS011;57248;47.320;15.998;2024-03-17T12:24:13;1.83;;;0.40;;
69937;SDS011;57248;47.320;15.998;2024-03-17T12:26:56;1.87;;;0.40;;
69937;SDS011;57248;47.320;15.998;2024-03-17T12:29:36;2.22;;;0.40;;
69937;SDS011;57248;47.320;15.998;2024-03-17T12:32:14;1.63;;;0.47;;
69937;SDS011;57248;47.320;15.998;2024-03-17T12:34:57;1.58;;;0.40;;
69937;SDS011;57248;47.320;15.998;2024-03-17T12:37:30;1.50;;;0.60;;
69937;SDS011;57248;47.320;15.998;2024-03-17T12:40:06;2.97;;;1.20;;
69937;SDS011;57248;47.320;15.998;2024-03-17T12:42:50;1.35;;;0.60;;
69937;SDS011;57248;47.320;15.998;2024-03-17T12:45:23;2.17;;;0.60;;
69937;SDS011;57248;47.320;15.998;2024-03-17T12:47:56;3.25;;;0.75;;
69937;SDS011;57248;47.320;15.998;2024-03-17T12:50:28;1.77;;;0.70;;
69937;SDS011;57248;47.320;15.998;2024-03-17T12:53:00;1.67;;;0.70;;
69937;SDS011;57248;47.320;15.998;2024-03-17T12:55:38;2.03;;;0.60;;
69937;SDS011;57248;47.320;15.998;2024-03-17T12:58:29;2.25;;;0.70;;
69937;SDS011;57248;47.320;15.998;2024-03-17T13:01:20;2.10;;;0.60;;
69937;SDS011;57248;47.320;15.998;2024-03-17T13:03:54;3.03;;;0.55;;
69937;SDS011;57248;47.320;15.998;2024-03-17T13:06:26;2.77;;;0.60;;
69937;SDS011;57248;47.320;15.998;2024-03-17T13:08:58;1.63;;;0.50;;
69937;SDS011;57248;47.320;15.998;2024-03-17T13:11:30;3.03;;;0.50;;
69937;SDS011;57248;47.320;15.998;2024-03-17T13:13:58;3.33;;;0.70;;
69937;SDS011;57248;47.320;15.998;2024-03-17T13:16:37;2.40;;;0.43;;
69937;SDS011;57248;47.320;15.998;2024-03-17T13:19:10;2.03;;;0.50;;
69937;SDS011;57248;47.320;15.998;2024-03-17T13:21:44;1.10;;;0.30;;
69937;SDS011;57248;47.320;15.998;2024-03-17T13:24:16;2.00;;;0.40;;
69937;SDS011;57248;47.320;15.998;2024-03-17T13:26:48;3.40;;;0.77;;
69937;SDS011;57248;47.320;15.998;2024-03-17T13:29:21;3.50;;;0.70;;
69937;SDS011;57248;47.320;15.998;2024-03-17T13:31:54;1.87;;;0.50;;
69937;SDS011;57248;47.320;15.998;2024-03-17T13:34:27;1.95;;;0.50;;
69937;SDS011;57248;47.320;15.998;2024-03-17T13:36:59;2.13;;;0.38;;
69937;SDS011;57248;47.320;15.998;2024-03-17T13:39:34;1.75;;;0.30;;
69937;SDS011;57248;47.320;15.998;2024-03-17T13:42:08;2.00;;;0.60;;
69937;SDS011;57248;47.320;15.998;2024-03-17T13:44:40;3.30;;;0.50;;
69937;SDS011;57248;47.320;15.998;2024-03-17T13:47:12;2.58;;;0.52;;
69937;SDS011;57248;47.320;15.998;2024-03-17T13:49:46;1.60;;;0.40;;
69937;SDS011;57248;47.320;15.998;2024-03-17T13:52:18;1.98;;;0.43;;
69937;SDS011;57248;47.320;15.998;2024-03-17T13:54:52;7.63;;;0.47;;
69937;SDS011;57248;47.320;15.998;2024-03-17T13:57:25;2.43;;;0.60;;
69937;SDS011;57248;47.320;15.998;2024-03-17T13:59:57;2.20;;;0.98;;
69937;SDS011;57248;47.320;15.998;2024-03-17T14:02:37;5.63;;;2.25;;
69937;SDS011;57248;47.320;15.998;2024-03-17T14:05:10;8.10;;;4.93;;
69937;SDS011;57248;47.320;15.998;2024-03-17T14:07:47;3.13;;;0.90;;
69937;SDS011;57248;47.320;15.998;2024-03-17T14:10:26;2.53;;;0.77;;
69937;SDS011;57248;47.320;15.998;2024-03-17T14:12:59;3.10;;;0.95;;
69937;SDS011;57248;47.320;15.998;2024-03-17T14:15:44;2.95;;;0.50;;
69937;SDS011;57248;47.320;15.998;2024-03-17T14:18:18;3.30;;;0.70;;
69937;SDS011;57248;47.320;15.998;2024-03-17T14:20:43;2.70;;;0.50;;
69937;SDS011;57248;47.320;15.998;2024-03-17T14:23:17;5.13;;;0.38;;
69937;SDS011;57248;47.320;15.998;2024-03-17T14:25:50;2.70;;;0.65;;
69937;SDS011;57248;47.320;15.998;2024-03-17T14:28:22;2.17;;;0.60;;
69937;SDS011;57248;47.320;15.998;2024-03-17T14:30:56;2.53;;;0.50;;
69937;SDS011;57248;47.320;15.998;2024-03-17T14:33:28;4.95;;;1.00;;
69937;SDS011;57248;47.320;15.998;2024-03-17T14:36:04;3.10;;;0.90;;
69937;SDS011;57248;47.320;15.998;2024-03-17T14:38:38;7.32;;;1.75;;
69937;SDS011;57248;47.320;15.998;2024-03-17T14:41:10;2.17;;;0.50;;
69937;SDS011;57248;47.320;15.998;2024-03-17T14:43:43;4.25;;;1.40;;
69937;SDS011;57248;47.320;15.998;2024-03-17T14:46:16;1.90;;;0.50;;
69937;SDS011;57248;47.320;15.998;2024-03-17T14:48:49;3.47;;;0.40;;
69937;SDS011;57248;47.320;15.998;2024-03-17T14:51:16;3.95;;;1.23;;
69937;SDS011;57248;47.320;15.998;2024-03-17T14:53:50;3.60;;;1.10;;
69937;SDS011;57248;47.320;15.998;2024-03-17T14:56:25;2.85;;;0.52;;
69937;SDS011;57248;47.320;15.998;2024-03-17T14:58:58;4.65;;;1.08;;
69937;SDS011;57248;47.320;15.998;2024-03-17T15:01:30;2.90;;;1.00;;
69937;SDS011;57248;47.320;15.998;2024-03-17T15:04:03;2.67;;;0.60;;
69937;SDS011;57248;47.320;15.998;2024-03-17T15:06:36;3.50;;;0.53;;
69937;SDS011;57248;47.320;15.998;2024-03-17T15:09:09;3.38;;;0.73;;
69937;SDS011;57248;47.320;15.998;2024-03-17T15:11:42;2.35;;;0.80;;
69937;SDS011;57248;47.320;15.998;2024-03-17T15:14:15;2.55;;;0.55;;
69937;SDS011;57248;47.320;15.998;2024-03-17T15:16:55;1.73;;;0.38;;